sensor_id;sensor_type;location;lat;lon;timestamp;temperature;humidity
22558;DHT22;11445;53.816;8.902;2023-03-13T00:00:29;7.00;99.90
22558;DHT22;11445;53.816;8.902;2023-03-13T00:02:56;7.00;99.90
22558;DHT22;11445;53.816;8.902;2023-03-13T00:05:25;7.00;99.90
22558;DHT22;11445;53.816;8.902;2023-03-13T00:07:52;7.00;99.90
22558;DHT22;11445;53.816;8.902;2023-03-13T00:10:19;7.00;99.90
22558;DHT22;11445;53.816;8.902;2023-03-13T00:12:46;7.00;99.90
22558;DHT22;11445;53.816;8.902;2023-03-13T00:15:13;7.00;99.90
22558;DHT22;11445;53.816;8.902;2023-03-13T00:17:40;7.00;99.90
22558;DHT22;11445;53.816;8.902;2023-03-13T00:20:08;7.00;99.90
22558;DHT22;11445;53.816;8.902;2023-03-13T00:22:37;7.10;99.90
22558;DHT22;11445;53.816;8.902;2023-03-13T00:25:05;7.10;99.90
22558;DHT22;11445;53.816;8.902;2023-03-13T00:27:32;7.10;99.90
22558;DHT22;11445;53.816;8.902;2023-03-13T00:30:00;7.20;99.90
22558;DHT22;11445;53.816;8.902;2023-03-13T00:32:27;7.20;99.90
22558;DHT22;11445;53.816;8.902;2023-03-13T00:34:54;7.20;99.90
22558;DHT22;11445;53.816;8.902;2023-03-13T00:37:21;7.20;99.90
22558;DHT22;11445;53.816;8.902;2023-03-13T00:39:49;7.20;99.90
22558;DHT22;11445;53.816;8.902;2023-03-13T00:42:16;7.30;99.90
22558;DHT22;11445;53.816;8.902;2023-03-13T00:44:43;7.30;99.90
22558;DHT22;11445;53.816;8.902;2023-03-13T00:47:10;7.30;99.90
22558;DHT22;11445;53.816;8.902;2023-03-13T00:49:37;7.30;99.90
22558;DHT22;11445;53.816;8.902;2023-03-13T00:52:05;7.30;99.90
22558;DHT22;11445;53.816;8.902;2023-03-13T00:54:32;7.40;99.90
22558;DHT22;11445;53.816;8.902;2023-03-13T00:57:00;7.40;99.90
22558;DHT22;11445;53.816;8.902;2023-03-13T00:59:27;7.40;99.90
22558;DHT22;11445;53.816;8.902;2023-03-13T01:01:54;7.40;99.90
22558;DHT22;11445;53.816;8.902;2023-03-13T01:04:21;7.50;99.90
22558;DHT22;11445;53.816;8.902;2023-03-13T01:06:48;7.50;99.90
22558;DHT22;11445;53.816;8.902;2023-03-13T01:09:16;7.50;99.90
22558;DHT22;11445;53.816;8.902;2023-03-13T01:11:44;7.50;99.90
22558;DHT22;11445;53.816;8.902;2023-03-13T01:14:14;7.60;99.90
22558;DHT22;11445;53.816;8.902;2023-03-13T01:16:41;7.60;99.90
22558;DHT22;11445;53.816;8.902;2023-03-13T01:19:10;7.60;99.90
22558;DHT22;11445;53.816;8.902;2023-03-13T01:21:38;7.60;99.90
22558;DHT22;11445;53.816;8.902;2023-03-13T01:24:05;7.60;99.90
22558;DHT22;11445;53.816;8.902;2023-03-13T01:26:33;7.60;99.90
22558;DHT22;11445;53.816;8.902;2023-03-13T01:29:00;7.60;99.90
22558;DHT22;11445;53.816;8.902;2023-03-13T01:31:29;7.60;99.90
22558;DHT22;11445;53.816;8.902;2023-03-13T01:33:58;7.60;99.90
22558;DHT22;11445;53.816;8.902;2023-03-13T01:36:26;7.60;99.90
22558;DHT22;11445;53.816;8.902;2023-03-13T01:38:54;7.60;99.90
22558;DHT22;11445;53.816;8.902;2023-03-13T01:41:23;7.60;99.90
22558;DHT22;11445;53.816;8.902;2023-03-13T01:43:50;7.60;99.90
22558;DHT22;11445;53.816;8.902;2023-03-13T01:46:18;7.70;99.90
22558;DHT22;11445;53.816;8.902;2023-03-13T01:48:51;7.60;99.90
22558;DHT22;11445;53.816;8.902;2023-03-13T01:51:23;7.60;99.90
22558;DHT22;11445;53.816;8.902;2023-03-13T01:53:54;7.60;99.90
22558;DHT22;11445;53.816;8.902;2023-03-13T01:56:26;7.60;99.90
22558;DHT22;11445;53.816;8.902;2023-03-13T01:58:56;7.60;99.90
22558;DHT22;11445;53.816;8.902;2023-03-13T02:01:24;7.60;99.90
22558;DHT22;11445;53.816;8.902;2023-03-13T02:03:54;7.60;99.90
22558;DHT22;11445;53.816;8.902;2023-03-13T02:06:22;7.60;99.90
22558;DHT22;11445;53.816;8.902;2023-03-13T02:08:52;7.60;99.90
22558;DHT22;11445;53.816;8.902;2023-03-13T02:11:28;7.60;99.90
22558;DHT22;11445;53.816;8.902;2023-03-13T02:13:58;7.50;99.90
22558;DHT22;11445;53.816;8.902;2023-03-13T02:16:26;7.50;99.90
22558;DHT22;11445;53.816;8.902;2023-03-13T02:18:55;7.50;99.90
22558;DHT22;11445;53.816;8.902;2023-03-13T02:21:34;7.60;99.90
22558;DHT22;11445;53.816;8.902;2023-03-13T02:24:08;7.60;99.90
22558;DHT22;11445;53.816;8.902;2023-03-13T02:26:39;7.50;99.90
22558;DHT22;11445;53.816;8.902;2023-03-13T02:29:07;7.60;99.90
22558;DHT22;11445;53.816;8.902;2023-03-13T02:31:43;7.60;99.90
22558;DHT22;11445;53.816;8.902;2023-03-13T02:34:13;7.60;99.90
22558;DHT22;11445;53.816;8.902;2023-03-13T02:36:41;7.60;99.90
22558;DHT22;11445;53.816;8.902;2023-03-13T02:39:08;7.60;99.90
22558;DHT22;11445;53.816;8.902;2023-03-13T02:41:39;7.60;99.90
22558;DHT22;11445;53.816;8.902;2023-03-13T02:44:07;7.60;99.90
22558;DHT22;11445;53.816;8.902;2023-03-13T02:46:44;7.60;99.90
22558;DHT22;11445;53.816;8.902;2023-03-13T02:49:23;7.60;99.90
22558;DHT22;11445;53.816;8.902;2023-03-13T02:51:52;7.60;99.90
22558;DHT22;11445;53.816;8.902;2023-03-13T02:54:23;7.60;99.90
22558;DHT22;11445;53.816;8.902;2023-03-13T02:56:55;7.60;99.90
22558;DHT22;11445;53.816;8.902;2023-03-13T02:59:23;7.60;99.90
22558;DHT22;11445;53.816;8.902;2023-03-13T03:01:51;7.60;99.90
22558;DHT22;11445;53.816;8.902;2023-03-13T03:04:19;7.60;99.90
22558;DHT22;11445;53.816;8.902;2023-03-13T03:06:47;7.60;99.90
22558;DHT22;11445;53.816;8.902;2023-03-13T03:09:14;7.60;99.90
22558;DHT22;11445;53.816;8.902;2023-03-13T03:11:41;7.60;99.90
22558;DHT22;11445;53.816;8.902;2023-03-13T03:14:10;7.60;99.90
22558;DHT22;11445;53.816;8.902;2023-03-13T03:16:38;7.60;99.90
22558;DHT22;11445;53.816;8.902;2023-03-13T03:19:05;7.60;99.90
22558;DHT22;11445;53.816;8.902;2023-03-13T03:21:33;7.60;99.90
22558;DHT22;11445;53.816;8.902;2023-03-13T03:24:00;7.60;99.90
22558;DHT22;11445;53.816;8.902;2023-03-13T03:26:27;7.60;99.90
22558;DHT22;11445;53.816;8.902;2023-03-13T03:28:54;7.60;99.90
22558;DHT22;11445;53.816;8.902;2023-03-13T03:31:23;7.60;99.90
22558;DHT22;11445;53.816;8.902;2023-03-13T03:33:50;7.60;99.90
22558;DHT22;11445;53.816;8.902;2023-03-13T03:36:18;7.60;99.90
22558;DHT22;11445;53.816;8.902;2023-03-13T03:38:46;7.60;99.90
22558;DHT22;11445;53.816;8.902;2023-03-13T03:41:13;7.60;99.90
22558;DHT22;11445;53.816;8.902;2023-03-13T03:43:41;7.60;99.90
22558;DHT22;11445;53.816;8.902;2023-03-13T03:46:08;7.60;99.90
22558;DHT22;11445;53.816;8.902;2023-03-13T03:48:37;7.60;99.90
22558;DHT22;11445;53.816;8.902;2023-03-13T03:51:04;7.60;99.90
22558;DHT22;11445;53.816;8.902;2023-03-13T03:53:31;7.60;99.90
22558;DHT22;11445;53.816;8.902;2023-03-13T03:55:59;7.60;99.90
22558;DHT22;11445;53.816;8.902;2023-03-13T03:58:27;7.60;99.90
22558;DHT22;11445;53.816;8.902;2023-03-13T04:00:56;7.60;99.90
22558;DHT22;11445;53.816;8.902;2023-03-13T04:03:23;7.60;99.90
22558;DHT22;11445;53.816;8.902;2023-03-13T04:05:52;7.60;99.90
22558;DHT22;11445;53.816;8.902;2023-03-13T04:08:19;7.60;99.90
22558;DHT22;11445;53.816;8.902;2023-03-13T04:10:46;7.70;99.90
22558;DHT22;11445;53.816;8.902;2023-03-13T04:13:14;7.70;99.90
22558;DHT22;11445;53.816;8.902;2023-03-13T04:15:41;7.70;99.90
22558;DHT22;11445;53.816;8.902;2023-03-13T04:18:08;7.70;99.90
22558;DHT22;11445;53.816;8.902;2023-03-13T04:20:35;7.70;99.90
22558;DHT22;11445;53.816;8.902;2023-03-13T04:23:03;7.70;99.90
22558;DHT22;11445;53.816;8.902;2023-03-13T04:25:30;7.70;99.90
22558;DHT22;11445;53.816;8.902;2023-03-13T04:27:58;7.70;99.90
22558;DHT22;11445;53.816;8.902;2023-03-13T04:30:25;7.70;99.90
22558;DHT22;11445;53.816;8.902;2023-03-13T04:32:52;7.70;99.90
22558;DHT22;11445;53.816;8.902;2023-03-13T04:35:19;7.70;99.90
22558;DHT22;11445;53.816;8.902;2023-03-13T04:37:46;7.70;99.90
22558;DHT22;11445;53.816;8.902;2023-03-13T04:40:15;7.80;99.90
22558;DHT22;11445;53.816;8.902;2023-03-13T04:42:42;7.80;99.90
22558;DHT22;11445;53.816;8.902;2023-03-13T04:45:11;7.80;99.90
22558;DHT22;11445;53.816;8.902;2023-03-13T04:47:38;7.80;99.90
22558;DHT22;11445;53.816;8.902;2023-03-13T04:50:05;7.80;99.90
22558;DHT22;11445;53.816;8.902;2023-03-13T04:52:33;7.80;99.90
22558;DHT22;11445;53.816;8.902;2023-03-13T04:55:00;7.80;99.90
22558;DHT22;11445;53.816;8.902;2023-03-13T04:57:28;7.80;99.90
22558;DHT22;11445;53.816;8.902;2023-03-13T04:59:55;7.80;99.90
22558;DHT22;11445;53.816;8.902;2023-03-13T05:02:22;7.80;99.90
22558;DHT22;11445;53.816;8.902;2023-03-13T05:04:49;7.80;99.90
22558;DHT22;11445;53.816;8.902;2023-03-13T05:07:16;7.80;99.90
22558;DHT22;11445;53.816;8.902;2023-03-13T05:09:43;7.80;99.90
22558;DHT22;11445;53.816;8.902;2023-03-13T05:12:10;7.80;99.90
22558;DHT22;11445;53.816;8.902;2023-03-13T05:14:39;7.80;99.90
22558;DHT22;11445;53.816;8.902;2023-03-13T05:17:06;7.80;99.90
22558;DHT22;11445;53.816;8.902;2023-03-13T05:19:33;7.80;99.90
22558;DHT22;11445;53.816;8.902;2023-03-13T05:22:00;7.80;99.90
22558;DHT22;11445;53.816;8.902;2023-03-13T05:24:27;7.80;99.90
22558;DHT22;11445;53.816;8.902;2023-03-13T05:26:54;7.90;99.90
22558;DHT22;11445;53.816;8.902;2023-03-13T05:29:21;7.90;99.90
22558;DHT22;11445;53.816;8.902;2023-03-13T05:31:49;7.90;99.90
22558;DHT22;11445;53.816;8.902;2023-03-13T05:34:16;7.90;99.90
22558;DHT22;11445;53.816;8.902;2023-03-13T05:36:43;7.90;99.90
22558;DHT22;11445;53.816;8.902;2023-03-13T05:39:10;8.00;99.90
22558;DHT22;11445;53.816;8.902;2023-03-13T05:41:37;7.90;99.90
22558;DHT22;11445;53.816;8.902;2023-03-13T05:44:04;8.00;99.90
22558;DHT22;11445;53.816;8.902;2023-03-13T05:46:31;8.00;99.90
22558;DHT22;11445;53.816;8.902;2023-03-13T05:49:00;8.00;99.90
22558;DHT22;11445;53.816;8.902;2023-03-13T05:51:27;8.10;99.90
22558;DHT22;11445;53.816;8.902;2023-03-13T05:53:54;8.10;99.90
22558;DHT22;11445;53.816;8.902;2023-03-13T05:56:21;8.10;99.90
22558;DHT22;11445;53.816;8.902;2023-03-13T05:58:48;8.20;99.90
22558;DHT22;11445;53.816;8.902;2023-03-13T06:01:15;8.20;99.90
22558;DHT22;11445;53.816;8.902;2023-03-13T06:03:42;8.20;99.90
22558;DHT22;11445;53.816;8.902;2023-03-13T06:06:11;8.20;99.90
22558;DHT22;11445;53.816;8.902;2023-03-13T06:08:38;8.30;99.90
22558;DHT22;11445;53.816;8.902;2023-03-13T06:11:05;8.40;99.90
22558;DHT22;11445;53.816;8.902;2023-03-13T06:13:32;8.40;99.90
22558;DHT22;11445;53.816;8.902;2023-03-13T06:15:59;8.50;99.90
22558;DHT22;11445;53.816;8.902;2023-03-13T06:18:26;8.60;99.90
22558;DHT22;11445;53.816;8.902;2023-03-13T06:20:56;8.60;99.90
22558;DHT22;11445;53.816;8.902;2023-03-13T06:23:25;8.60;99.90
22558;DHT22;11445;53.816;8.902;2023-03-13T06:25:52;8.60;99.90
22558;DHT22;11445;53.816;8.902;2023-03-13T06:28:19;8.70;99.90
22558;DHT22;11445;53.816;8.902;2023-03-13T06:30:46;8.70;99.90
22558;DHT22;11445;53.816;8.902;2023-03-13T06:33:13;8.70;99.90
22558;DHT22;11445;53.816;8.902;2023-03-13T06:35:41;8.70;99.90
22558;DHT22;11445;53.816;8.902;2023-03-13T06:38:08;8.80;99.90
22558;DHT22;11445;53.816;8.902;2023-03-13T06:40:36;8.80;99.90
22558;DHT22;11445;53.816;8.902;2023-03-13T06:43:04;8.80;99.90
22558;DHT22;11445;53.816;8.902;2023-03-13T06:45:30;8.90;99.90
22558;DHT22;11445;53.816;8.902;2023-03-13T06:47:58;9.00;99.90
22558;DHT22;11445;53.816;8.902;2023-03-13T06:50:25;9.00;99.90
22558;DHT22;11445;53.816;8.902;2023-03-13T06:52:52;9.00;99.90
22558;DHT22;11445;53.816;8.902;2023-03-13T06:55:19;9.00;99.90
22558;DHT22;11445;53.816;8.902;2023-03-13T06:57:50;9.00;99.90
22558;DHT22;11445;53.816;8.902;2023-03-13T07:00:18;9.00;99.90
22558;DHT22;11445;53.816;8.902;2023-03-13T07:02:45;9.10;99.90
22558;DHT22;11445;53.816;8.902;2023-03-13T07:05:12;9.10;99.90
22558;DHT22;11445;53.816;8.902;2023-03-13T07:07:39;9.10;99.90
22558;DHT22;11445;53.816;8.902;2023-03-13T07:10:08;9.10;99.90
22558;DHT22;11445;53.816;8.902;2023-03-13T07:12:35;9.10;99.90
22558;DHT22;11445;53.816;8.902;2023-03-13T07:15:05;9.20;99.90
22558;DHT22;11445;53.816;8.902;2023-03-13T07:17:32;9.20;99.90
22558;DHT22;11445;53.816;8.902;2023-03-13T07:19:59;9.20;99.90
22558;DHT22;11445;53.816;8.902;2023-03-13T07:22:27;9.30;99.90
22558;DHT22;11445;53.816;8.902;2023-03-13T07:24:54;9.30;99.90
22558;DHT22;11445;53.816;8.902;2023-03-13T07:27:21;9.30;99.90
22558;DHT22;11445;53.816;8.902;2023-03-13T07:29:48;9.30;99.90
22558;DHT22;11445;53.816;8.902;2023-03-13T07:32:16;9.40;99.90
22558;DHT22;11445;53.816;8.902;2023-03-13T07:34:43;9.40;99.90
22558;DHT22;11445;53.816;8.902;2023-03-13T07:37:10;9.50;99.90
22558;DHT22;11445;53.816;8.902;2023-03-13T07:39:38;9.50;99.90
22558;DHT22;11445;53.816;8.902;2023-03-13T07:42:05;9.60;99.90
22558;DHT22;11445;53.816;8.902;2023-03-13T07:44:32;9.70;99.90
22558;DHT22;11445;53.816;8.902;2023-03-13T07:47:00;9.70;99.90
22558;DHT22;11445;53.816;8.902;2023-03-13T07:49:28;9.80;99.90
22558;DHT22;11445;53.816;8.902;2023-03-13T07:51:55;9.80;99.90
22558;DHT22;11445;53.816;8.902;2023-03-13T07:54:22;9.90;99.90
22558;DHT22;11445;53.816;8.902;2023-03-13T07:56:49;9.90;99.90
22558;DHT22;11445;53.816;8.902;2023-03-13T07:59:16;10.00;99.90
22558;DHT22;11445;53.816;8.902;2023-03-13T08:01:43;10.00;99.90
22558;DHT22;11445;53.816;8.902;2023-03-13T08:04:12;10.10;99.90
22558;DHT22;11445;53.816;8.902;2023-03-13T08:06:41;10.10;99.90
22558;DHT22;11445;53.816;8.902;2023-03-13T08:09:08;10.20;99.90
22558;DHT22;11445;53.816;8.902;2023-03-13T08:11:36;10.30;99.90
22558;DHT22;11445;53.816;8.902;2023-03-13T08:14:05;10.30;99.90
22558;DHT22;11445;53.816;8.902;2023-03-13T08:16:33;10.30;99.90
22558;DHT22;11445;53.816;8.902;2023-03-13T08:19:01;10.40;99.90
22558;DHT22;11445;53.816;8.902;2023-03-13T08:21:31;10.40;99.90
22558;DHT22;11445;53.816;8.902;2023-03-13T08:24:01;10.50;99.90
22558;DHT22;11445;53.816;8.902;2023-03-13T08:26:30;10.60;99.90
22558;DHT22;11445;53.816;8.902;2023-03-13T08:28:59;10.60;99.90
22558;DHT22;11445;53.816;8.902;2023-03-13T08:31:28;10.70;99.90
22558;DHT22;11445;53.816;8.902;2023-03-13T08:33:56;10.70;99.90
22558;DHT22;11445;53.816;8.902;2023-03-13T08:36:24;10.70;99.90
22558;DHT22;11445;53.816;8.902;2023-03-13T08:38:54;10.80;99.90
22558;DHT22;11445;53.816;8.902;2023-03-13T08:41:24;10.80;99.90
22558;DHT22;11445;53.816;8.902;2023-03-13T08:43:51;10.80;99.90
22558;DHT22;11445;53.816;8.902;2023-03-13T08:46:20;10.80;99.90
22558;DHT22;11445;53.816;8.902;2023-03-13T08:48:48;10.80;99.90
22558;DHT22;11445;53.816;8.902;2023-03-13T08:51:16;10.80;99.90
22558;DHT22;11445;53.816;8.902;2023-03-13T08:53:44;10.80;99.90
22558;DHT22;11445;53.816;8.902;2023-03-13T08:56:12;10.90;99.90
22558;DHT22;11445;53.816;8.902;2023-03-13T08:58:41;10.90;99.90
22558;DHT22;11445;53.816;8.902;2023-03-13T09:01:10;10.90;99.90
22558;DHT22;11445;53.816;8.902;2023-03-13T09:03:38;10.90;99.90
22558;DHT22;11445;53.816;8.902;2023-03-13T09:06:06;10.90;99.90
22558;DHT22;11445;53.816;8.902;2023-03-13T09:08:34;11.00;99.90
22558;DHT22;11445;53.816;8.902;2023-03-13T09:11:03;11.00;99.90
22558;DHT22;11445;53.816;8.902;2023-03-13T09:13:32;11.00;99.90
22558;DHT22;11445;53.816;8.902;2023-03-13T09:16:02;11.00;99.90
22558;DHT22;11445;53.816;8.902;2023-03-13T09:18:29;11.00;99.90
22558;DHT22;11445;53.816;8.902;2023-03-13T09:20:57;11.00;99.90
22558;DHT22;11445;53.816;8.902;2023-03-13T09:23:24;11.00;99.90
22558;DHT22;11445;53.816;8.902;2023-03-13T09:25:53;11.10;99.90
22558;DHT22;11445;53.816;8.902;2023-03-13T09:28:20;11.10;99.90
22558;DHT22;11445;53.816;8.902;2023-03-13T09:30:47;11.10;99.90
22558;DHT22;11445;53.816;8.902;2023-03-13T09:33:16;11.10;99.90
22558;DHT22;11445;53.816;8.902;2023-03-13T09:35:44;11.10;99.90
22558;DHT22;11445;53.816;8.902;2023-03-13T09:38:15;11.20;99.90
22558;DHT22;11445;53.816;8.902;2023-03-13T09:40:45;11.20;99.90
22558;DHT22;11445;53.816;8.902;2023-03-13T09:43:20;11.20;99.90
22558;DHT22;11445;53.816;8.902;2023-03-13T09:45:51;11.20;99.90
22558;DHT22;11445;53.816;8.902;2023-03-13T09:48:28;11.20;99.90
22558;DHT22;11445;53.816;8.902;2023-03-13T09:51:02;11.20;99.90
22558;DHT22;11445;53.816;8.902;2023-03-13T09:53:38;11.20;99.90
22558;DHT22;11445;53.816;8.902;2023-03-13T09:56:12;11.20;99.90
22558;DHT22;11445;53.816;8.902;2023-03-13T09:58:43;11.30;99.90
22558;DHT22;11445;53.816;8.902;2023-03-13T10:01:16;11.40;99.90
22558;DHT22;11445;53.816;8.902;2023-03-13T10:03:54;11.50;99.90
22558;DHT22;11445;53.816;8.902;2023-03-13T10:06:23;11.50;99.90
22558;DHT22;11445;53.816;8.902;2023-03-13T10:08:51;11.50;99.90
22558;DHT22;11445;53.816;8.902;2023-03-13T10:11:24;11.50;99.90
22558;DHT22;11445;53.816;8.902;2023-03-13T10:13:57;11.60;99.90
22558;DHT22;11445;53.816;8.902;2023-03-13T10:16:29;11.60;99.90
22558;DHT22;11445;53.816;8.902;2023-03-13T10:18:58;11.60;99.90
22558;DHT22;11445;53.816;8.902;2023-03-13T10:21:32;11.60;99.90
22558;DHT22;11445;53.816;8.902;2023-03-13T10:24:04;11.60;99.90
22558;DHT22;11445;53.816;8.902;2023-03-13T10:26:34;11.60;99.90
22558;DHT22;11445;53.816;8.902;2023-03-13T10:29:19;11.70;99.90
22558;DHT22;11445;53.816;8.902;2023-03-13T10:31:55;11.70;99.90
22558;DHT22;11445;53.816;8.902;2023-03-13T10:34:24;11.80;99.90
22558;DHT22;11445;53.816;8.902;2023-03-13T10:36:55;11.90;99.90
22558;DHT22;11445;53.816;8.902;2023-03-13T10:39:24;11.90;99.90
22558;DHT22;11445;53.816;8.902;2023-03-13T10:41:57;12.00;99.90
22558;DHT22;11445;53.816;8.902;2023-03-13T10:44:30;12.10;99.90
22558;DHT22;11445;53.816;8.902;2023-03-13T10:46:58;12.20;99.90
22558;DHT22;11445;53.816;8.902;2023-03-13T10:49:28;12.30;99.90
22558;DHT22;11445;53.816;8.902;2023-03-13T10:51:56;12.30;99.90
22558;DHT22;11445;53.816;8.902;2023-03-13T10:54:25;12.40;99.90
22558;DHT22;11445;53.816;8.902;2023-03-13T10:57:08;12.50;99.90
22558;DHT22;11445;53.816;8.902;2023-03-13T10:59:38;12.60;99.90
22558;DHT22;11445;53.816;8.902;2023-03-13T11:02:22;12.70;99.90
22558;DHT22;11445;53.816;8.902;2023-03-13T11:04:51;12.70;99.90
22558;DHT22;11445;53.816;8.902;2023-03-13T11:07:26;12.80;99.90
22558;DHT22;11445;53.816;8.902;2023-03-13T11:09:58;12.90;99.90
22558;DHT22;11445;53.816;8.902;2023-03-13T11:12:26;13.00;99.90
22558;DHT22;11445;53.816;8.902;2023-03-13T11:14:57;13.00;99.90
22558;DHT22;11445;53.816;8.902;2023-03-13T11:17:31;13.00;99.90
22558;DHT22;11445;53.816;8.902;2023-03-13T11:20:16;13.10;99.90
22558;DHT22;11445;53.816;8.902;2023-03-13T11:23:07;13.20;99.90
22558;DHT22;11445;53.816;8.902;2023-03-13T11:25:40;13.20;99.90
22558;DHT22;11445;53.816;8.902;2023-03-13T11:28:22;13.20;99.90
22558;DHT22;11445;53.816;8.902;2023-03-13T11:31:02;13.30;99.90
22558;DHT22;11445;53.816;8.902;2023-03-13T11:33:38;13.20;99.90
22558;DHT22;11445;53.816;8.902;2023-03-13T11:36:14;13.20;99.90
22558;DHT22;11445;53.816;8.902;2023-03-13T11:38:47;13.30;99.90
22558;DHT22;11445;53.816;8.902;2023-03-13T11:41:23;13.30;99.90
22558;DHT22;11445;53.816;8.902;2023-03-13T11:44:08;13.30;99.90
22558;DHT22;11445;53.816;8.902;2023-03-13T11:46:45;13.40;99.90
22558;DHT22;11445;53.816;8.902;2023-03-13T11:52:21;13.40;99.90
22558;DHT22;11445;53.816;8.902;2023-03-13T11:58:00;13.50;99.90
22558;DHT22;11445;53.816;8.902;2023-03-13T12:00:35;13.60;99.90
22558;DHT22;11445;53.816;8.902;2023-03-13T12:03:08;13.60;99.90
22558;DHT22;11445;53.816;8.902;2023-03-13T12:05:42;13.70;99.90
22558;DHT22;11445;53.816;8.902;2023-03-13T12:08:16;13.70;99.90
22558;DHT22;11445;53.816;8.902;2023-03-13T12:10:47;13.80;99.90
22558;DHT22;11445;53.816;8.902;2023-03-13T12:13:21;13.80;99.90
22558;DHT22;11445;53.816;8.902;2023-03-13T12:15:55;13.90;99.90
22558;DHT22;11445;53.816;8.902;2023-03-13T12:18:28;13.90;99.90
22558;DHT22;11445;53.816;8.902;2023-03-13T12:21:00;13.90;99.90
22558;DHT22;11445;53.816;8.902;2023-03-13T12:23:39;13.90;99.90
22558;DHT22;11445;53.816;8.902;2023-03-13T12:26:11;13.90;99.90
22558;DHT22;11445;53.816;8.902;2023-03-13T12:28:42;13.90;99.90
22558;DHT22;11445;53.816;8.902;2023-03-13T12:31:18;14.00;99.90
22558;DHT22;11445;53.816;8.902;2023-03-13T12:33:53;14.00;99.90
22558;DHT22;11445;53.816;8.902;2023-03-13T12:36:25;14.10;99.90
22558;DHT22;11445;53.816;8.902;2023-03-13T12:39:00;14.10;99.90
22558;DHT22;11445;53.816;8.902;2023-03-13T12:41:35;14.10;99.90
22558;DHT22;11445;53.816;8.902;2023-03-13T12:44:08;14.20;99.90
22558;DHT22;11445;53.816;8.902;2023-03-13T12:46:41;14.20;99.90
22558;DHT22;11445;53.816;8.902;2023-03-13T12:52:34;14.30;99.90
22558;DHT22;11445;53.816;8.902;2023-03-13T12:55:33;14.40;99.90
22558;DHT22;11445;53.816;8.902;2023-03-13T12:58:12;14.40;99.90
22558;DHT22;11445;53.816;8.902;2023-03-13T13:00:44;14.50;99.90
22558;DHT22;11445;53.816;8.902;2023-03-13T13:03:22;14.40;99.90
22558;DHT22;11445;53.816;8.902;2023-03-13T13:06:06;14.40;99.90
22558;DHT22;11445;53.816;8.902;2023-03-13T13:08:37;14.40;99.90
22558;DHT22;11445;53.816;8.902;2023-03-13T13:17:54;14.50;99.90
22558;DHT22;11445;53.816;8.902;2023-03-13T13:20:40;14.50;99.90
22558;DHT22;11445;53.816;8.902;2023-03-13T13:23:32;14.60;99.90
22558;DHT22;11445;53.816;8.902;2023-03-13T13:32:46;14.90;99.90
22558;DHT22;11445;53.816;8.902;2023-03-13T13:35:29;15.00;99.90
22558;DHT22;11445;53.816;8.902;2023-03-13T13:38:30;15.10;99.90
22558;DHT22;11445;53.816;8.902;2023-03-13T13:41:32;15.20;99.90
22558;DHT22;11445;53.816;8.902;2023-03-13T13:44:31;15.20;99.90
22558;DHT22;11445;53.816;8.902;2023-03-13T13:46:58;15.30;99.90
22558;DHT22;11445;53.816;8.902;2023-03-13T13:49:32;15.30;99.90
22558;DHT22;11445;53.816;8.902;2023-03-13T13:52:35;15.30;99.90
22558;DHT22;11445;53.816;8.902;2023-03-13T13:55:31;15.40;99.90
22558;DHT22;11445;53.816;8.902;2023-03-13T13:57:59;15.40;99.90
22558;DHT22;11445;53.816;8.902;2023-03-13T14:00:36;15.50;99.90
22558;DHT22;11445;53.816;8.902;2023-03-13T14:03:18;15.40;99.90
22558;DHT22;11445;53.816;8.902;2023-03-13T14:05:47;15.40;99.90
22558;DHT22;11445;53.816;8.902;2023-03-13T14:08:20;15.40;99.90
22558;DHT22;11445;53.816;8.902;2023-03-13T14:10:53;15.30;99.90
22558;DHT22;11445;53.816;8.902;2023-03-13T14:13:21;15.30;99.90
22558;DHT22;11445;53.816;8.902;2023-03-13T14:15:51;15.20;99.90
22558;DHT22;11445;53.816;8.902;2023-03-13T14:18:23;15.10;99.90
22558;DHT22;11445;53.816;8.902;2023-03-13T14:20:59;15.00;99.90
22558;DHT22;11445;53.816;8.902;2023-03-13T14:23:34;15.00;99.90
22558;DHT22;11445;53.816;8.902;2023-03-13T14:26:13;15.00;99.90
22558;DHT22;11445;53.816;8.902;2023-03-13T14:28:43;14.90;99.90
22558;DHT22;11445;53.816;8.902;2023-03-13T14:31:21;14.80;99.90
22558;DHT22;11445;53.816;8.902;2023-03-13T14:33:48;14.80;99.90
22558;DHT22;11445;53.816;8.902;2023-03-13T14:36:15;14.70;99.90
22558;DHT22;11445;53.816;8.902;2023-03-13T14:38:52;14.70;99.90
22558;DHT22;11445;53.816;8.902;2023-03-13T14:41:31;14.70;99.90
22558;DHT22;11445;53.816;8.902;2023-03-13T14:44:03;14.80;99.90
22558;DHT22;11445;53.816;8.902;2023-03-13T14:46:32;14.80;99.90
22558;DHT22;11445;53.816;8.902;2023-03-13T14:49:15;14.80;99.90
22558;DHT22;11445;53.816;8.902;2023-03-13T14:51:43;14.80;99.90
22558;DHT22;11445;53.816;8.902;2023-03-13T14:54:31;14.80;99.90
22558;DHT22;11445;53.816;8.902;2023-03-13T14:57:03;14.80;99.90
22558;DHT22;11445;53.816;8.902;2023-03-13T14:59:30;14.80;99.90
22558;DHT22;11445;53.816;8.902;2023-03-13T15:01:58;14.80;99.90
22558;DHT22;11445;53.816;8.902;2023-03-13T15:04:47;14.80;99.90
22558;DHT22;11445;53.816;8.902;2023-03-13T15:07:14;14.80;99.90
22558;DHT22;11445;53.816;8.902;2023-03-13T15:09:43;14.70;99.90
22558;DHT22;11445;53.816;8.902;2023-03-13T15:12:13;14.80;99.90
22558;DHT22;11445;53.816;8.902;2023-03-13T15:14:42;14.70;99.90
22558;DHT22;11445;53.816;8.902;2023-03-13T15:17:13;14.70;99.90
22558;DHT22;11445;53.816;8.902;2023-03-13T15:19:41;14.70;99.90
22558;DHT22;11445;53.816;8.902;2023-03-13T15:22:11;14.70;99.90
22558;DHT22;11445;53.816;8.902;2023-03-13T15:24:39;14.60;99.90
22558;DHT22;11445;53.816;8.902;2023-03-13T15:27:14;14.60;99.90
22558;DHT22;11445;53.816;8.902;2023-03-13T15:29:42;14.70;99.90
22558;DHT22;11445;53.816;8.902;2023-03-13T15:32:13;14.60;99.90
22558;DHT22;11445;53.816;8.902;2023-03-13T15:34:42;14.60;99.90
22558;DHT22;11445;53.816;8.902;2023-03-13T15:37:11;14.50;99.90
22558;DHT22;11445;53.816;8.902;2023-03-13T15:39:38;14.50;99.90
22558;DHT22;11445;53.816;8.902;2023-03-13T15:42:06;14.40;99.90
22558;DHT22;11445;53.816;8.902;2023-03-13T15:44:34;14.40;99.90
22558;DHT22;11445;53.816;8.902;2023-03-13T15:47:01;14.40;99.90
22558;DHT22;11445;53.816;8.902;2023-03-13T15:49:28;14.40;99.90
22558;DHT22;11445;53.816;8.902;2023-03-13T15:51:56;14.50;99.90
22558;DHT22;11445;53.816;8.902;2023-03-13T15:54:23;14.50;99.90
22558;DHT22;11445;53.816;8.902;2023-03-13T15:56:51;14.50;99.90
22558;DHT22;11445;53.816;8.902;2023-03-13T15:59:18;14.50;99.90
22558;DHT22;11445;53.816;8.902;2023-03-13T16:01:47;14.40;99.90
22558;DHT22;11445;53.816;8.902;2023-03-13T16:04:14;14.40;99.90
22558;DHT22;11445;53.816;8.902;2023-03-13T16:06:41;14.30;99.90
22558;DHT22;11445;53.816;8.902;2023-03-13T16:09:10;14.20;99.90
22558;DHT22;11445;53.816;8.902;2023-03-13T16:11:37;14.30;99.90
22558;DHT22;11445;53.816;8.902;2023-03-13T16:14:04;14.20;99.90
22558;DHT22;11445;53.816;8.902;2023-03-13T16:16:33;14.20;99.90
22558;DHT22;11445;53.816;8.902;2023-03-13T16:19:02;14.10;99.90